Impacts METAR Board INFO
IDs:

KCLT - Charlotte/Douglas In, NC, US

Updated at: 0446 UTC 12 Dec 2017
Potential Impact None Slight Moderate High
Time11/16Z 11/17Z 11/18Z 11/19Z 11/20Z 11/21Z 11/22Z 11/23Z 12/00Z 12/01Z 12/02Z 12/03Z 12/04Z
VIS10 10 10 10 10 10 10 10 10 10 10 10 10
CIG-- -- -- -- -- -- -- -- -- -- -- -- --
CoverCLRCLRCLRCLRCLRCLRCLRFEWFEWFEWCLRCLRCLR
FltCatVFRVFRVFRVFRVFRVFRVFRVFRVFRVFRVFRVFRVFR
WX--------------------------
WDir0180180180190190210170180170180160190
WSpd0 7 10 9 7 9 6 6 7 8 6 5 4
WGst-- -- -- -- -- -- -- -- -- -- -- -- --
Raw hourly METARs
KCLT 111552Z 00000KT 10SM CLR 08/M01 A3015 RMK AO2 SLP211 T00781011
KCLT 111652Z 18007KT 10SM CLR 10/M02 A3011 RMK AO2 SLP197 T01001022
KCLT 111752Z 18010KT 10SM CLR 12/M03 A3008 RMK AO2 SLP186 T01171028 10117 21028 58025
KCLT 111852Z 18009KT 10SM CLR 12/M02 A3005 RMK AO2 SLP176 T01221022
KCLT 111952Z 19007KT 10SM CLR 12/M02 A3001 RMK AO2 SLP164 T01221017
KCLT 112052Z 19009KT 10SM CLR 12/M01 A3000 RMK AO2 SLP162 T01221011 56024
KCLT 112152Z 21006KT 10SM CLR 11/M01 A3000 RMK AO2 SLP161 T01111011
KCLT 112252Z 17006KT 10SM FEW250 07/M01 A2999 RMK AO2 SLP157 T00721006
KCLT 112352Z 18007KT 10SM FEW250 08/M01 A2999 RMK AO2 SLP158 T00781006 10128 20067 55005
KCLT 120052Z 17008KT 10SM FEW250 06/00 A2997 RMK AO2 SLP150 T00610000
KCLT 120152Z 18006KT 10SM CLR 06/00 A2995 RMK AO2 SLP145 T00560000
KCLT 120252Z 16005KT 10SM CLR 04/00 A2993 RMK AO2 SLP138 T00440000 56019
KCLT 120352Z 19004KT 10SM CLR 06/01 A2991 RMK AO2 SLP129 T00560006